Time;durP1;ratioP1;P1;durP2;ratioP2;P2;SDS_P1;SDS_P2;PMS_P1;PMS_P2;Temp;Humidity;BMP_temperature;BMP_pressure;BME280_temperature;BME280_humidity;BME280_pressure;Samples;Min_cycle;Max_cycle;Signal;HPM_P1;HPM_P2
2022/07/25 00:01:11;;;;;;;;;;;;;;;24.14;68.21;99339.78;5056270;28;19912;-95
2022/07/25 00:03:37;;;;;;;;;;;;;;;24.09;70.03;99343.59;5056684;28;19913;-96
2022/07/25 00:06:03;;;;;;;;;;;;;;;24.03;70.69;99353.31;5075386;28;19948;-95
2022/07/25 00:08:28;;;;;;;;;;;;;;;23.99;69.25;99339.47;5056368;28;19951;-95
2022/07/25 00:10:53;;;;;;;;;;;;;;;23.92;70.21;99335.75;5056178;28;19919;-95
2022/07/25 00:13:19;;;;;;;;;;;;;;;23.94;69.88;99323.22;5056488;28;20291;-94
2022/07/25 00:15:45;;;;;;;;;;;;;;;24.07;69.35;99334.88;5056626;28;19913;-95
2022/07/25 00:18:11;;;;;;;;;;;;;;;24.21;69.24;99337.16;5055155;28;19913;-95
2022/07/25 00:20:37;;;;;;;;;;;;;;;24.21;69.96;99328.91;5056561;28;19923;-94
2022/07/25 00:23:04;;;;;;;;;;;;;;;24.06;70.83;99318.78;5056068;28;19921;-95
2022/07/25 00:25:29;;;;;;;;;;;;;;;23.92;70.73;99300.00;5056701;28;19943;-95
2022/07/25 00:27:55;;;;;;;;;;;;;;;23.87;70.48;99287.34;5073014;28;19913;-95
2022/07/25 00:30:20;;;;;;;;;;;;;;;23.89;71.10;99285.03;5056587;28;20293;-95
2022/07/25 00:32:45;;;;;;;;;;;;;;;23.79;71.77;99286.38;5057128;28;19982;-95
2022/07/25 00:35:11;;;;;;;;;;;;;;;23.78;71.96;99283.97;5056494;28;20431;-95
2022/07/25 00:37:37;;;;;;;;;;;;;;;23.69;71.64;99281.41;5056676;28;19974;-95
2022/07/25 00:40:03;;;;;;;;;;;;;;;23.65;71.75;99277.78;5056411;28;19960;-95
2022/07/25 00:42:30;;;;;;;;;;;;;;;23.62;71.80;99286.75;5056603;28;19999;-95
2022/07/25 00:44:58;;;;;;;;;;;;;;;23.63;70.81;99274.59;5056348;28;19940;-95
2022/07/25 00:47:24;;;;;;;;;;;;;;;23.60;71.96;99280.81;5056120;28;20362;-95
2022/07/25 00:49:50;;;;;;;;;;;;;;;23.69;71.36;99286.91;5073631;28;19965;-96
2022/07/25 00:52:15;;;;;;;;;;;;;;;23.75;71.98;99282.72;5055225;28;19921;-95
2022/07/25 00:54:41;;;;;;;;;;;;;;;23.88;70.25;99277.91;5056257;28;19912;-95
2022/07/25 00:57:06;;;;;;;;;;;;;;;23.92;69.95;99270.53;5056211;28;19919;-95
2022/07/25 00:59:31;;;;;;;;;;;;;;;23.83;70.78;99269.16;5056986;28;19916;-95
2022/07/25 01:01:57;;;;;;;;;;;;;;;23.70;71.40;99266.50;5055343;28;19912;-96
2022/07/25 01:04:23;;;;;;;;;;;;;;;23.73;70.33;99271.28;5055864;28;19923;-95
2022/07/25 01:06:48;;;;;;;;;;;;;;;23.69;70.85;99275.91;5056608;28;19919;-95
2022/07/25 01:09:16;;;;;;;;;;;;;;;23.56;71.06;99279.94;5056666;28;19940;-95
2022/07/25 01:11:41;;;;;;;;;;;;;;;23.51;70.87;99278.25;5055925;28;19947;-95
2022/07/25 01:14:07;;;;;;;;;;;;;;;23.46;70.51;99270.28;5055296;28;19971;-95
2022/07/25 01:16:32;;;;;;;;;;;;;;;23.42;70.53;99269.41;5056308;28;19955;-95
2022/07/25 01:18:58;;;;;;;;;;;;;;;23.43;70.80;99267.44;5056063;28;19913;-95
2022/07/25 01:21:23;;;;;;;;;;;;;;;23.40;71.61;99267.00;5055674;28;19967;-95
2022/07/25 01:23:49;;;;;;;;;;;;;;;23.42;71.85;99268.63;5055790;28;19917;-95
2022/07/25 01:26:14;;;;;;;;;;;;;;;23.56;70.64;99269.72;5055595;28;19916;-95
2022/07/25 01:28:40;;;;;;;;;;;;;;;23.70;69.90;99257.44;5056089;28;19916;-95
2022/07/25 01:31:06;;;;;;;;;;;;;;;23.73;70.39;99262.25;5057424;28;19927;-95
2022/07/25 01:33:31;;;;;;;;;;;;;;;23.62;71.13;99248.25;5060363;28;19916;-95
2022/07/25 01:35:57;;;;;;;;;;;;;;;23.44;71.74;99247.06;5059853;28;19919;-95
2022/07/25 01:38:22;;;;;;;;;;;;;;;23.39;71.20;99240.69;5059099;28;19995;-95
2022/07/25 01:40:47;;;;;;;;;;;;;;;23.35;71.47;99237.06;5059341;28;19978;-95
2022/07/25 01:43:13;;;;;;;;;;;;;;;23.33;72.17;99249.56;5059238;28;20003;-95
2022/07/25 01:45:39;;;;;;;;;;;;;;;23.30;72.43;99245.56;5059466;28;19912;-95
2022/07/25 01:48:06;;;;;;;;;;;;;;;23.34;71.87;99240.94;5059294;28;19919;-95
2022/07/25 01:50:32;;;;;;;;;;;;;;;23.24;72.24;99240.72;5058680;28;20437;-96
2022/07/25 01:52:58;;;;;;;;;;;;;;;23.23;72.55;99241.88;5059289;28;19959;-96
2022/07/25 01:55:24;;;;;;;;;;;;;;;23.17;72.63;99230.34;5059348;28;19920;-95
2022/07/25 01:57:49;;;;;;;;;;;;;;;23.04;73.46;99231.63;5059033;28;19913;-96
2022/07/25 02:00:15;;;;;;;;;;;;;;;23.11;73.02;99234.53;5059162;28;19973;-96
2022/07/25 02:02:41;;;;;;;;;;;;;;;22.98;73.72;99231.06;5059739;28;19912;-96
2022/07/25 02:05:07;;;;;;;;;;;;;;;22.95;74.33;99237.25;5058507;28;19920;-96
2022/07/25 02:07:32;;;;;;;;;;;;;;;22.93;74.25;99234.06;5059369;28;20019;-96
2022/07/25 02:09:57;;;;;;;;;;;;;;;22.89;74.29;99233.16;5059061;28;19919;-96
2022/07/25 02:12:23;;;;;;;;;;;;;;;22.82;74.16;99235.75;5058889;28;20115;-96
2022/07/25 02:14:48;;;;;;;;;;;;;;;22.80;73.70;99231.41;5058307;28;19917;-95
2022/07/25 02:17:14;;;;;;;;;;;;;;;22.79;74.62;99240.78;5058375;28;20294;-95
2022/07/25 02:19:43;;;;;;;;;;;;;;;22.78;74.63;99250.16;5059010;28;19912;-95
2022/07/25 02:22:08;;;;;;;;;;;;;;;22.74;74.79;99240.25;5059182;28;19958;-95
2022/07/25 02:24:36;;;;;;;;;;;;;;;22.67;74.54;99235.38;5058173;28;20350;-96
2022/07/25 02:27:03;;;;;;;;;;;;;;;22.71;75.39;99240.97;5058605;28;19912;-96
2022/07/25 02:29:29;;;;;;;;;;;;;;;22.62;74.83;99230.16;5058086;28;20340;-95
2022/07/25 02:31:55;;;;;;;;;;;;;;;22.63;74.02;99241.94;5058035;28;19926;-95
2022/07/25 02:34:20;;;;;;;;;;;;;;;22.62;74.63;99238.41;5058305;28;19924;-96
2022/07/25 02:36:47;;;;;;;;;;;;;;;22.71;73.76;99241.75;5058838;28;19912;-95
2022/07/25 02:39:12;;;;;;;;;;;;;;;22.71;73.76;99235.47;5057889;28;19912;-95
2022/07/25 02:41:38;;;;;;;;;;;;;;;22.69;74.09;99240.53;5058264;28;19912;-95
2022/07/25 02:44:04;;;;;;;;;;;;;;;22.65;74.40;99225.91;5058168;28;19924;-96
2022/07/25 02:46:29;;;;;;;;;;;;;;;22.67;74.47;99229.91;5058665;28;19912;-95
2022/07/25 02:48:55;;;;;;;;;;;;;;;22.64;74.25;99227.06;5059250;28;20370;-95
2022/07/25 02:51:22;;;;;;;;;;;;;;;22.67;74.25;99226.34;5058762;28;19913;-96
2022/07/25 02:53:47;;;;;;;;;;;;;;;22.66;74.54;99230.25;5058754;28;19917;-96
2022/07/25 02:56:13;;;;;;;;;;;;;;;22.59;74.24;99228.13;5057977;28;20440;-95
2022/07/25 02:58:39;;;;;;;;;;;;;;;22.54;74.71;99228.38;5058041;28;19970;-95
2022/07/25 03:01:05;;;;;;;;;;;;;;;22.53;74.68;99226.78;5058203;28;19970;-95
2022/07/25 03:03:30;;;;;;;;;;;;;;;22.48;74.65;99230.59;5058213;28;19919;-96
2022/07/25 03:05:55;;;;;;;;;;;;;;;22.47;74.81;99226.22;5058869;28;19901;-96
2022/07/25 03:08:21;;;;;;;;;;;;;;;22.48;74.48;99235.28;5057841;28;19924;-96
2022/07/25 03:10:47;;;;;;;;;;;;;;;22.41;74.15;99224.88;5058651;28;19912;-96
2022/07/25 03:13:13;;;;;;;;;;;;;;;22.50;73.17;99227.50;5058444;28;19912;-96
2022/07/25 03:15:38;;;;;;;;;;;;;;;22.59;73.02;99226.16;5058853;28;19917;-96
2022/07/25 03:18:03;;;;;;;;;;;;;;;22.53;73.72;99227.56;5058796;28;19912;-95
2022/07/25 03:20:29;;;;;;;;;;;;;;;22.55;73.37;99228.00;5057673;28;19990;-96
2022/07/25 03:22:54;;;;;;;;;;;;;;;22.49;74.14;99231.38;5059396;28;19912;-96
2022/07/25 03:25:19;;;;;;;;;;;;;;;22.54;73.11;99233.88;5059328;28;19913;-95
2022/07/25 03:27:45;;;;;;;;;;;;;;;22.50;73.20;99224.75;5058040;28;19916;-94
2022/07/25 03:30:11;;;;;;;;;;;;;;;22.66;72.75;99231.06;5058471;28;19916;-96
2022/07/25 03:32:37;;;;;;;;;;;;;;;22.58;73.43;99232.03;5057006;28;20015;-96
2022/07/25 03:35:03;;;;;;;;;;;;;;;22.39;73.63;99229.94;5057199;28;19974;-95
2022/07/25 03:37:29;;;;;;;;;;;;;;;22.33;74.14;99232.16;5057367;28;19999;-93
2022/07/25 03:39:55;;;;;;;;;;;;;;;22.25;74.23;99230.38;5057582;28;20435;-94
2022/07/25 03:42:22;;;;;;;;;;;;;;;22.22;75.71;99241.19;5057225;28;20294;-95
2022/07/25 03:44:50;;;;;;;;;;;;;;;22.20;75.10;99244.28;5057071;28;19924;-95
2022/07/25 03:47:16;;;;;;;;;;;;;;;22.32;74.71;99240.72;5074849;28;19912;-94
2022/07/25 03:49:42;;;;;;;;;;;;;;;22.39;74.85;99238.97;5058169;28;19923;-94
2022/07/25 03:52:07;;;;;;;;;;;;;;;22.39;74.44;99243.66;5057745;28;20345;-95
2022/07/25 03:54:33;;;;;;;;;;;;;;;22.43;74.18;99241.00;5055630;28;19912;-96
2022/07/25 03:56:58;;;;;;;;;;;;;;;22.70;72.70;99242.94;5058684;28;20279;-95
2022/07/25 03:59:24;;;;;;;;;;;;;;;22.53;73.31;99244.03;5056458;28;19977;-94
2022/07/25 04:01:51;;;;;;;;;;;;;;;22.45;73.95;99245.00;5056329;28;19994;-93
2022/07/25 04:04:16;;;;;;;;;;;;;;;22.52;73.74;99247.94;5056909;28;20372;-96
2022/07/25 04:06:42;;;;;;;;;;;;;;;22.57;73.78;99250.41;5059374;28;19951;-94
2022/07/25 04:09:08;;;;;;;;;;;;;;;22.77;71.97;99253.28;5055852;28;20370;-94
2022/07/25 04:11:34;;;;;;;;;;;;;;;22.70;72.48;99258.56;5056624;28;19913;-94
2022/07/25 04:14:01;;;;;;;;;;;;;;;22.64;72.61;99260.81;5057608;28;19923;-95
2022/07/25 04:16:26;;;;;;;;;;;;;;;22.73;72.02;99257.88;5073562;28;20374;-95
2022/07/25 04:18:52;;;;;;;;;;;;;;;22.98;71.05;99261.25;5058090;28;19921;-95
2022/07/25 04:21:17;;;;;;;;;;;;;;;22.93;71.18;99267.00;5057957;28;19916;-93
2022/07/25 04:23:43;;;;;;;;;;;;;;;22.91;71.95;99269.31;5057282;28;19967;-95
2022/07/25 04:26:08;;;;;;;;;;;;;;;22.95;71.82;99265.53;5071294;28;19913;-95
2022/07/25 04:28:34;;;;;;;;;;;;;;;22.99;71.63;99265.59;5056322;28;20376;-95
2022/07/25 04:31:00;;;;;;;;;;;;;;;22.94;72.66;99266.66;5072147;28;20012;-94
2022/07/25 04:33:25;;;;;;;;;;;;;;;23.14;71.10;99277.78;5057522;28;19924;-95
2022/07/25 04:35:53;;;;;;;;;;;;;;;23.23;71.52;99283.88;5054824;28;19913;-96
2022/07/25 04:38:18;;;;;;;;;;;;;;;23.09;71.79;99294.50;5037800;28;20008;-96
2022/07/25 04:40:44;;;;;;;;;;;;;;;23.07;72.23;99292.09;5038334;28;19963;-94
2022/07/25 04:43:09;;;;;;;;;;;;;;;23.23;71.29;99296.81;5040766;28;19928;-94
2022/07/25 04:45:35;;;;;;;;;;;;;;;23.23;71.37;99305.06;5057528;28;19912;-94
2022/07/25 04:48:00;;;;;;;;;;;;;;;23.19;71.40;99315.94;5075470;28;19912;-94
2022/07/25 04:50:26;;;;;;;;;;;;;;;23.26;71.42;99312.56;5058441;28;19919;-94
2022/07/25 04:52:51;;;;;;;;;;;;;;;23.23;70.64;99319.59;5056870;28;19921;-94
2022/07/25 04:55:17;;;;;;;;;;;;;;;23.25;66.79;99322.78;5054088;28;19917;-95
2022/07/25 04:57:45;;;;;;;;;;;;;;;23.26;70.51;99329.06;5059583;28;19934;-93
2022/07/25 05:00:13;;;;;;;;;;;;;;;23.37;68.29;99325.44;5093754;28;20400;-93
2022/07/25 05:02:38;;;;;;;;;;;;;;;23.41;67.58;99325.53;5064258;28;20302;-94
2022/07/25 05:05:07;;;;;;;;;;;;;;;23.55;66.66;99327.81;5038950;28;20000;-93
2022/07/25 05:07:33;;;;;;;;;;;;;;;23.62;65.92;99332.69;5042035;28;19923;-94
2022/07/25 05:09:59;;;;;;;;;;;;;;;23.80;65.21;99331.16;5041965;28;19912;-92
2022/07/25 05:12:24;;;;;;;;;;;;;;;23.73;66.21;99334.50;5223603;23;19987;-90
2022/07/25 05:14:49;;;;;;;;;;;;;;;23.76;65.67;99349.50;5032099;28;19928;-92
2022/07/25 05:17:15;;;;;;;;;;;;;;;23.89;65.01;99339.22;5037777;28;20012;-90
2022/07/25 05:19:43;;;;;;;;;;;;;;;23.90;65.08;99344.34;5041325;28;20004;-95
2022/07/25 05:22:08;;;;;;;;;;;;;;;23.97;64.67;99350.03;5043128;28;19913;-93
2022/07/25 05:24:34;;;;;;;;;;;;;;;24.07;63.89;99356.91;5022372;28;19913;-95
2022/07/25 05:26:59;;;;;;;;;;;;;;;24.14;64.09;99350.78;5153203;22;19928;-96
2022/07/25 05:29:27;;;;;;;;;;;;;;;24.20;63.52;99352.09;5030803;28;20016;-96
2022/07/25 05:32:03;;;;;;;;;;;;;;;24.26;63.10;99353.41;5040563;28;19913;-95
2022/07/25 05:34:40;;;;;;;;;;;;;;;24.03;64.17;99350.56;5025620;28;19913;-95
2022/07/25 05:37:05;;;;;;;;;;;;;;;24.28;63.21;99355.78;5021595;28;19920;-96
2022/07/25 05:39:31;;;;;;;;;;;;;;;24.17;63.47;99345.31;5024821;28;19913;-95
2022/07/25 05:41:59;;;;;;;;;;;;;;;24.09;64.58;99343.59;5024013;28;19920;-95
2022/07/25 05:44:27;;;;;;;;;;;;;;;24.10;65.16;99336.94;5027686;28;20379;-95
2022/07/25 05:46:58;;;;;;;;;;;;;;;24.14;65.09;99339.78;5047421;28;19924;-95
2022/07/25 05:49:44;;;;;;;;;;;;;;;24.09;65.08;99329.03;5029441;28;19913;-92
2022/07/25 05:52:30;;;;;;;;;;;;;;;24.06;64.65;99327.81;5000406;28;19961;-92
2022/07/25 05:55:07;;;;;;;;;;;;;;;24.11;64.44;99330.25;5035800;28;20003;-94
2022/07/25 05:57:45;;;;;;;;;;;;;;;24.05;64.11;99334.47;5027498;28;19913;-95
2022/07/25 06:03:53;;;;;;;;;;;;;;;24.18;64.91;99333.19;5030459;28;19941;-94
2022/07/25 06:06:20;;;;;;;;;;;;;;;24.23;64.49;99336.81;5039254;28;19948;-93
2022/07/25 06:11:47;;;;;;;;;;;;;;;24.37;63.76;99329.63;4977709;28;19918;-93
2022/07/25 06:14:22;;;;;;;;;;;;;;;24.38;63.90;99323.00;5029706;28;19921;-94
2022/07/25 06:16:54;;;;;;;;;;;;;;;24.42;63.85;99331.28;5009728;28;19920;-95
2022/07/25 06:19:30;;;;;;;;;;;;;;;24.54;63.07;99333.94;5030931;28;19914;-91
2022/07/25 06:21:56;;;;;;;;;;;;;;;24.60;63.44;99339.94;5022737;28;20277;-92
2022/07/25 06:24:39;;;;;;;;;;;;;;;24.67;63.25;99339.28;5015543;28;19921;-92
2022/07/25 06:27:12;;;;;;;;;;;;;;;24.76;62.17;99342.63;5035960;28;19921;-91
2022/07/25 06:32:27;;;;;;;;;;;;;;;25.02;61.22;99344.66;5032237;28;19921;-94
2022/07/25 06:35:07;;;;;;;;;;;;;;;25.05;60.80;99343.13;5002168;28;19914;-95
2022/07/25 06:37:46;;;;;;;;;;;;;;;25.15;61.14;99345.25;5000425;28;19913;-93
2022/07/25 06:40:17;;;;;;;;;;;;;;;25.14;61.25;99344.47;4999926;28;19920;-94
2022/07/25 06:51:38;;;;;;;;;;;;;;;26.15;56.72;99344.09;5026414;28;20355;-93
2022/07/25 06:54:07;;;;;;;;;;;;;;;26.30;55.18;99342.31;5022857;28;19921;-93
2022/07/25 06:56:32;;;;;;;;;;;;;;;26.60;54.25;99344.28;5018619;28;19913;-94
2022/07/25 06:58:58;;;;;;;;;;;;;;;26.78;54.65;99339.75;5004893;28;19914;-94
2022/07/25 07:01:29;;;;;;;;;;;;;;;26.87;54.01;99339.44;5006540;28;19921;-96
2022/07/25 07:06:52;;;;;;;;;;;;;;;26.68;54.46;99340.41;5025524;28;20074;-94
2022/07/25 07:09:17;;;;;;;;;;;;;;;26.90;53.92;99332.38;5007094;28;19920;-94
2022/07/25 07:11:51;;;;;;;;;;;;;;;27.02;53.47;99332.88;5004773;28;19913;-94
2022/07/25 07:14:36;;;;;;;;;;;;;;;26.98;53.66;99328.50;5022837;28;19925;-91
2022/07/25 07:17:04;;;;;;;;;;;;;;;26.96;53.30;99339.94;5014610;28;19921;-95
2022/07/25 07:19:30;;;;;;;;;;;;;;;26.78;53.04;99338.94;5036136;28;20322;-94
2022/07/25 07:21:58;;;;;;;;;;;;;;;26.70;54.17;99343.59;5018849;28;19952;-93
2022/07/25 07:24:43;;;;;;;;;;;;;;;26.61;54.73;99345.88;5020032;28;20051;-96
2022/07/25 07:27:33;;;;;;;;;;;;;;;26.78;53.04;99336.97;5036226;28;19984;-93
2022/07/25 07:30:14;;;;;;;;;;;;;;;26.88;52.77;99345.78;5000137;28;19921;-92
2022/07/25 07:32:47;;;;;;;;;;;;;;;26.85;52.86;99346.50;5001050;28;19917;-93
2022/07/25 07:35:15;;;;;;;;;;;;;;;26.92;52.70;99346.59;5003225;28;19914;-92
2022/07/25 07:37:40;;;;;;;;;;;;;;;26.93;51.92;99345.41;4998074;28;19914;-90
2022/07/25 07:40:06;;;;;;;;;;;;;;;27.16;52.22;99345.25;4999314;28;20008;-93
2022/07/25 07:42:42;;;;;;;;;;;;;;;27.27;51.77;99345.34;5000526;28;19914;-94
2022/07/25 07:45:16;;;;;;;;;;;;;;;27.41;51.35;99345.47;4999818;28;19925;-91
2022/07/25 07:47:48;;;;;;;;;;;;;;;27.54;50.33;99332.16;4991223;28;19929;-95
2022/07/25 07:50:15;;;;;;;;;;;;;;;27.47;51.31;99343.94;5002466;28;19913;-94
2022/07/25 07:56:01;;;;;;;;;;;;;;;27.50;51.78;99337.66;5018930;28;20355;-92
2022/07/25 07:58:49;;;;;;;;;;;;;;;27.60;51.05;99341.66;5001148;28;19949;-93
2022/07/25 08:01:14;;;;;;;;;;;;;;;27.52;50.90;99349.13;5000421;28;20288;-93
2022/07/25 08:04:03;;;;;;;;;;;;;;;27.44;51.56;99344.72;4999882;28;19960;-91
2022/07/25 08:06:31;;;;;;;;;;;;;;;27.41;51.43;99337.19;4998503;28;20398;-94
2022/07/25 08:08:57;;;;;;;;;;;;;;;27.61;50.38;99335.75;5000322;28;19918;-92
2022/07/25 08:11:25;;;;;;;;;;;;;;;27.63;50.45;99332.59;5018673;28;19920;-93
2022/07/25 08:13:50;;;;;;;;;;;;;;;27.67;49.79;99341.72;4989779;28;20005;-93
2022/07/25 08:16:29;;;;;;;;;;;;;;;;;;;;;
2022/07/25 08:18:54;;;;;;;;;;;;;;;27.90;48.42;99340.72;5014718;28;19913;-90
2022/07/25 08:21:25;;;;;;;;;;;;;;;27.97;48.76;99341.56;4997093;28;20340;-91
2022/07/25 08:23:54;;;;;;;;;;;;;;;27.98;48.68;99337.59;4999266;28;19989;-93
2022/07/25 08:26:19;;;;;;;;;;;;;;;28.00;49.53;99343.53;4998172;28;19920;-94
2022/07/25 08:28:45;;;;;;;;;;;;;;;28.02;48.62;99341.19;5008967;28;19917;-93
2022/07/25 08:31:10;;;;;;;;;;;;;;;28.12;48.27;99338.84;5017989;28;20015;-93
2022/07/25 08:33:38;;;;;;;;;;;;;;;28.14;48.80;99339.25;5017419;28;19925;-93
2022/07/25 08:36:06;;;;;;;;;;;;;;;28.20;49.27;99343.25;5017296;28;19982;-93
2022/07/25 08:38:34;;;;;;;;;;;;;;;28.17;49.11;99344.03;5018015;28;20363;-94
2022/07/25 08:41:01;;;;;;;;;;;;;;;28.30;48.22;99336.16;5017792;28;19913;-91
2022/07/25 08:43:28;;;;;;;;;;;;;;;28.20;49.17;99337.69;5020214;28;20614;-90
2022/07/25 08:45:53;;;;;;;;;;;;;;;28.31;48.63;99333.03;5020789;28;19913;-92
2022/07/25 08:48:23;;;;;;;;;;;;;;;28.51;48.06;99338.25;5035334;28;19913;-93
2022/07/25 08:50:49;;;;;;;;;;;;;;;28.62;46.97;99336.31;5016275;28;19922;-92
2022/07/25 08:53:30;;;;;;;;;;;;;;;28.64;47.06;99331.19;5012927;28;19921;-94
2022/07/25 08:55:57;;;;;;;;;;;;;;;28.63;48.33;99332.34;5003265;28;19921;-91
2022/07/25 08:58:23;;;;;;;;;;;;;;;28.92;47.34;99330.44;5017326;28;19913;-93
2022/07/25 09:03:41;;;;;;;;;;;;;;;29.23;45.71;99332.88;4982650;28;20057;-96
2022/07/25 09:06:16;;;;;;;;;;;;;;;29.41;45.07;99328.13;4974882;28;19961;-93
2022/07/25 09:08:51;;;;;;;;;;;;;;;29.36;44.93;99326.53;4958814;28;19958;-92
2022/07/25 09:11:30;;;;;;;;;;;;;;;29.54;44.98;99320.19;4975587;28;19918;-92
2022/07/25 09:14:05;;;;;;;;;;;;;;;29.60;44.37;99315.81;4953704;29;19915;-92
2022/07/25 09:16:31;;;;;;;;;;;;;;;29.76;43.69;99319.00;4971573;28;19925;-94
2022/07/25 09:19:15;;;;;;;;;;;;;;;29.67;43.23;99303.91;4959633;28;20008;-91
2022/07/25 09:21:43;;;;;;;;;;;;;;;29.70;43.02;99305.91;4975867;28;19914;-94
2022/07/25 09:24:14;;;;;;;;;;;;;;;29.97;42.85;99314.56;4957384;28;20285;-93
2022/07/25 09:26:48;;;;;;;;;;;;;;;30.10;41.54;99309.38;4952200;28;19940;-94
2022/07/25 09:29:45;;;;;;;;;;;;;;;30.19;41.80;99299.41;5030933;28;19918;-96
2022/07/25 09:35:41;;;;;;;;;;;;;;;30.17;40.41;99298.22;5010735;28;19980;-96
2022/07/25 09:38:13;;;;;;;;;;;;;;;30.09;41.49;99297.47;4970292;29;19922;-94
2022/07/25 09:41:21;;;;;;;;;;;;;;;30.14;39.94;99304.59;4972679;28;19919;-95
2022/07/25 09:49:29;;;;;;;;;;;;;;;;;;;;;
2022/07/25 09:52:51;;;;;;;;;;;;;;;;;;;;;
2022/07/25 09:55:44;;;;;;;;;;;;;;;29.77;40.71;99294.78;5040332;28;20020;-94
2022/07/25 09:58:10;;;;;;;;;;;;;;;29.71;39.92;99288.84;4994094;28;19972;-94
2022/07/25 10:00:38;;;;;;;;;;;;;;;29.67;41.25;99296.38;5002833;28;19913;-95
2022/07/25 10:06:19;;;;;;;;;;;;;;;29.70;39.70;99290.06;5030061;28;19932;-96
2022/07/25 10:08:45;;;;;;;;;;;;;;;29.82;39.99;99286.03;5023202;28;19917;-93
2022/07/25 10:11:26;;;;;;;;;;;;;;;30.02;39.63;99292.72;4996678;28;20454;-92
2022/07/25 10:13:54;;;;;;;;;;;;;;;30.20;39.39;99280.78;5002550;28;20016;-92
2022/07/25 10:16:20;;;;;;;;;;;;;;;30.30;38.75;99284.69;5012043;28;20439;-92
2022/07/25 10:18:57;;;;;;;;;;;;;;;30.59;39.62;99286.13;5016910;28;19935;-93
2022/07/25 10:21:32;;;;;;;;;;;;;;;30.68;37.38;99280.13;5007770;28;20011;-94
2022/07/25 10:23:58;;;;;;;;;;;;;;;30.71;39.26;99282.06;5009158;28;19928;-92
2022/07/25 10:26:26;;;;;;;;;;;;;;;30.72;39.19;99274.56;5024794;28;19979;-96
2022/07/25 10:28:52;;;;;;;;;;;;;;;30.77;38.17;99271.31;5025777;28;20398;-96
2022/07/25 10:31:17;;;;;;;;;;;;;;;30.78;38.71;99254.25;5023143;28;19913;-96
2022/07/25 10:38:50;;;;;;;;;;;;;;;30.97;37.20;99266.06;5034364;28;19932;-92
2022/07/25 10:41:15;;;;;;;;;;;;;;;30.93;38.30;99252.16;5036527;28;19921;-91
2022/07/25 10:43:50;;;;;;;;;;;;;;;31.04;37.91;99249.28;5041136;28;20406;-95
2022/07/25 10:46:21;;;;;;;;;;;;;;;30.76;37.33;99250.28;5041617;28;19913;-92
2022/07/25 10:48:57;;;;;;;;;;;;;;;30.76;37.96;99250.28;5039365;28;19913;-94
2022/07/25 10:51:29;;;;;;;;;;;;;;;30.88;37.20;99249.03;5039081;28;20015;-89
2022/07/25 10:53:56;;;;;;;;;;;;;;;30.92;37.04;99247.00;5022333;28;19917;-92
2022/07/25 11:00:31;;;;;;;;;;;;;;;;;;;;;
2022/07/25 11:02:56;;;;;;;;;;;;;;;31.21;37.72;99231.66;4967843;28;19914;-92
2022/07/25 11:05:24;;;;;;;;;;;;;;;31.41;37.86;99233.84;5017902;28;19967;-94
2022/07/25 11:07:53;;;;;;;;;;;;;;;31.54;37.76;99225.78;5048024;28;20429;-93
2022/07/25 11:10:27;;;;;;;;;;;;;;;31.65;37.83;99225.66;5040357;28;19984;-92
2022/07/25 11:15:40;;;;;;;;;;;;;;;;;;;;;
2022/07/25 11:18:18;;;;;;;;;;;;;;;31.57;37.06;99222.97;5002635;28;20374;-95
2022/07/25 11:21:04;;;;;;;;;;;;;;;31.42;37.12;99218.75;5002855;28;20462;-94
2022/07/25 11:23:32;;;;;;;;;;;;;;;31.61;37.60;99209.81;5010079;28;19936;-96
2022/07/25 11:26:26;;;;;;;;;;;;;;;31.94;38.11;99210.19;4988755;28;19963;-96
2022/07/25 11:28:56;;;;;;;;;;;;;;;32.06;37.31;99214.44;4999083;28;19996;-93
2022/07/25 11:31:26;;;;;;;;;;;;;;;31.92;36.46;99215.41;4985552;28;20403;-92
2022/07/25 11:33:51;;;;;;;;;;;;;;;32.08;35.91;99208.44;4986280;28;19940;-93
2022/07/25 11:36:19;;;;;;;;;;;;;;;32.13;36.21;99208.78;4986516;28;19917;-94
2022/07/25 11:38:48;;;;;;;;;;;;;;;32.11;35.32;99205.63;5006209;28;19920;-95
2022/07/25 11:41:14;;;;;;;;;;;;;;;32.12;34.48;99200.84;5004095;28;20003;-94
2022/07/25 11:43:48;;;;;;;;;;;;;;;32.16;35.45;99204.38;5004743;28;19940;-95
2022/07/25 11:46:14;;;;;;;;;;;;;;;32.03;34.98;99197.78;4999229;28;19957;-94
2022/07/25 11:59:25;;;;;;;;;;;;;;;32.07;36.17;99182.59;1921464;22;20179;-95
2022/07/25 12:02:39;;;;;;;;;;;;;;;;;;;;;
2022/07/25 12:05:19;;;;;;;;;;;;;;;32.34;34.42;99184.59;4990854;28;19973;-96
2022/07/25 12:07:51;;;;;;;;;;;;;;;32.21;34.60;99173.25;5004855;28;19940;-92
2022/07/25 12:10:19;;;;;;;;;;;;;;;32.19;34.99;99170.09;4977859;28;19945;-94
2022/07/25 12:12:52;;;;;;;;;;;;;;;32.16;35.40;99166.13;4975233;28;19969;-93
2022/07/25 12:15:26;;;;;;;;;;;;;;;32.07;35.49;99171.47;4974971;28;19914;-93
2022/07/25 12:17:55;;;;;;;;;;;;;;;31.81;36.18;99178.53;4981144;28;19913;-93
2022/07/25 12:20:21;;;;;;;;;;;;;;;31.71;36.65;99162.75;4963888;28;19969;-93
2022/07/25 12:22:47;;;;;;;;;;;;;;;31.96;36.04;99166.00;4962352;28;19937;-92
2022/07/25 12:25:12;;;;;;;;;;;;;;;31.90;36.34;99159.34;4978027;28;19914;-92
2022/07/25 12:27:57;;;;;;;;;;;;;;;;;;;;;
2022/07/25 12:30:27;;;;;;;;;;;;;;;32.13;36.34;99153.06;4960841;29;20013;-95
2022/07/25 12:32:55;;;;;;;;;;;;;;;31.97;35.76;99150.88;4954838;29;19919;-94
2022/07/25 12:35:25;;;;;;;;;;;;;;;32.14;35.60;99151.06;4955973;29;22044;-93
2022/07/25 12:37:50;;;;;;;;;;;;;;;32.11;35.81;99141.56;4956475;29;19914;-94
2022/07/25 12:40:16;;;;;;;;;;;;;;;32.25;35.72;99148.09;4943442;29;19926;-95
2022/07/25 12:43:13;;;;;;;;;;;;;;;32.47;34.74;99137.41;4939459;29;19974;-96
2022/07/25 12:45:38;;;;;;;;;;;;;;;32.28;35.95;99125.78;4943159;29;20488;-94
2022/07/25 12:48:04;;;;;;;;;;;;;;;32.61;35.19;99126.84;4935424;29;19962;-96
2022/07/25 12:50:29;;;;;;;;;;;;;;;32.60;35.67;99133.66;4935681;29;19914;-95
2022/07/25 12:52:55;;;;;;;;;;;;;;;32.61;35.78;99132.41;4934612;29;19918;-92
2022/07/25 12:55:20;;;;;;;;;;;;;;;32.35;35.82;99127.66;4919840;29;19915;-94
2022/07/25 12:57:46;;;;;;;;;;;;;;;32.29;35.29;99127.38;4941447;29;19954;-91
2022/07/25 13:00:12;;;;;;;;;;;;;;;32.60;35.70;99125.28;4927197;28;19922;-94
2022/07/25 13:02:37;;;;;;;;;;;;;;;32.57;35.36;99126.13;4943667;28;20020;-92
2022/07/25 13:05:03;;;;;;;;;;;;;;;32.48;34.95;99128.66;4964964;28;19918;-94
2022/07/25 13:07:28;;;;;;;;;;;;;;;32.71;34.51;99133.47;4976617;28;19989;-95
2022/07/25 13:09:56;;;;;;;;;;;;;;;32.68;34.44;99128.72;4980489;28;19917;-96
2022/07/25 13:12:22;;;;;;;;;;;;;;;32.50;34.77;99123.44;4997953;28;19917;-93
2022/07/25 13:14:48;;;;;;;;;;;;;;;32.37;34.52;99116.88;4984151;28;20296;-94
2022/07/25 13:17:52;;;;;;;;;;;;;;;32.64;33.93;99110.47;4986492;28;19920;-95
2022/07/25 13:20:18;;;;;;;;;;;;;;;32.98;33.18;99097.09;4986876;28;19955;-96
2022/07/25 13:27:50;;;;;;;;;;;;;;;33.30;32.56;99109.66;5052056;28;19999;-94
2022/07/25 13:30:15;;;;;;;;;;;;;;;33.35;32.32;99111.97;5036522;28;19917;-89
2022/07/25 13:32:41;;;;;;;;;;;;;;;33.33;32.16;99097.66;5038413;28;19916;-94
2022/07/25 13:35:06;;;;;;;;;;;;;;;33.46;32.10;99103.38;5036791;28;19992;-90
2022/07/25 13:37:34;;;;;;;;;;;;;;;33.66;31.91;99099.78;5025731;28;20059;-92
2022/07/25 13:40:00;;;;;;;;;;;;;;;33.89;31.95;99102.47;5038215;28;19913;-91
2022/07/25 13:42:25;;;;;;;;;;;;;;;33.92;31.79;99103.59;5035771;28;20369;-91
2022/07/25 13:44:50;;;;;;;;;;;;;;;33.96;31.18;99102.28;5038928;28;19919;-92
2022/07/25 13:47:16;;;;;;;;;;;;;;;34.00;30.25;99094.59;5025894;28;19948;-93
2022/07/25 13:49:41;;;;;;;;;;;;;;;34.19;31.02;99092.97;5029403;28;19913;-94
2022/07/25 13:52:06;;;;;;;;;;;;;;;34.53;30.82;99086.16;5020882;28;19913;-95
2022/07/25 13:54:32;;;;;;;;;;;;;;;34.65;30.41;99081.09;5024064;28;20347;-94
2022/07/25 13:57:00;;;;;;;;;;;;;;;34.62;29.83;99082.75;5029415;28;19913;-95
2022/07/25 13:59:25;;;;;;;;;;;;;;;34.60;29.38;99088.00;5006642;28;19919;-91
2022/07/25 14:01:53;;;;;;;;;;;;;;;34.77;29.59;99072.75;5039110;28;19912;-92
2022/07/25 14:04:20;;;;;;;;;;;;;;;35.18;29.13;99076.84;5040162;28;19912;-91
2022/07/25 14:06:50;;;;;;;;;;;;;;;35.47;28.94;99070.44;5039316;28;19920;-93
2022/07/25 14:09:16;;;;;;;;;;;;;;;35.52;28.48;99072.66;5031281;28;19913;-93
2022/07/25 14:11:41;;;;;;;;;;;;;;;35.73;28.65;99071.25;5021839;28;19919;-90